sensor_id;sensor_type;location;lat;lon;timestamp;pressure;altitude;pressure_sealevel;temperature;humidity
7668;BME280;3876;42.204;24.686;2023-06-04T00:02:19;99538.44;;;19.59;95.26
7668;BME280;3876;42.204;24.686;2023-06-04T00:04:46;99537.53;;;19.60;95.21
7668;BME280;3876;42.204;24.686;2023-06-04T00:07:13;99531.38;;;19.61;95.54
7668;BME280;3876;42.204;24.686;2023-06-04T00:09:41;99534.72;;;19.63;95.47
7668;BME280;3876;42.204;24.686;2023-06-04T00:12:09;99533.63;;;19.53;95.19
7668;BME280;3876;42.204;24.686;2023-06-04T00:14:36;99531.13;;;19.52;95.25
7668;BME280;3876;42.204;24.686;2023-06-04T00:17:03;99537.16;;;19.52;94.93
7668;BME280;3876;42.204;24.686;2023-06-04T00:19:30;99533.44;;;19.56;95.34
7668;BME280;3876;42.204;24.686;2023-06-04T00:21:57;99538.19;;;19.50;94.76
7668;BME280;3876;42.204;24.686;2023-06-04T00:24:23;99533.31;;;19.31;95.00
7668;BME280;3876;42.204;24.686;2023-06-04T00:26:51;99531.66;;;19.30;95.10
7668;BME280;3876;42.204;24.686;2023-06-04T00:29:18;99526.25;;;19.33;95.80
7668;BME280;3876;42.204;24.686;2023-06-04T00:31:45;99533.41;;;19.29;95.16
7668;BME280;3876;42.204;24.686;2023-06-04T00:34:12;99528.75;;;19.34;94.95
7668;BME280;3876;42.204;24.686;2023-06-04T00:36:39;99535.59;;;19.35;94.61
7668;BME280;3876;42.204;24.686;2023-06-04T00:39:06;99529.50;;;19.36;95.30
7668;BME280;3876;42.204;24.686;2023-06-04T00:41:33;99534.25;;;19.30;95.51
7668;BME280;3876;42.204;24.686;2023-06-04T00:44:01;99529.44;;;19.24;96.08
7668;BME280;3876;42.204;24.686;2023-06-04T00:46:32;99529.34;;;19.25;96.01
7668;BME280;3876;42.204;24.686;2023-06-04T00:48:59;99533.53;;;19.28;96.08
7668;BME280;3876;42.204;24.686;2023-06-04T00:51:26;99533.72;;;19.25;96.25
7668;BME280;3876;42.204;24.686;2023-06-04T00:53:53;99544.13;;;19.25;96.74
7668;BME280;3876;42.204;24.686;2023-06-04T00:56:20;99545.88;;;19.24;96.27
7668;BME280;3876;42.204;24.686;2023-06-04T00:58:47;99541.31;;;19.28;95.59
7668;BME280;3876;42.204;24.686;2023-06-04T01:01:20;99540.56;;;19.26;95.50
7668;BME280;3876;42.204;24.686;2023-06-04T01:03:51;99543.31;;;19.37;95.94
7668;BME280;3876;42.204;24.686;2023-06-04T01:06:26;99542.28;;;19.39;95.62
7668;BME280;3876;42.204;24.686;2023-06-04T01:08:56;99548.16;;;19.43;95.25
7668;BME280;3876;42.204;24.686;2023-06-04T01:11:31;99552.31;;;19.46;95.21
7668;BME280;3876;42.204;24.686;2023-06-04T01:13:58;99545.84;;;19.38;95.30
7668;BME280;3876;42.204;24.686;2023-06-04T01:16:30;99544.06;;;19.39;95.52
7668;BME280;3876;42.204;24.686;2023-06-04T01:19:02;99550.75;;;19.43;95.49
7668;BME280;3876;42.204;24.686;2023-06-04T01:21:35;99553.91;;;19.48;95.48
7668;BME280;3876;42.204;24.686;2023-06-04T01:24:05;99540.28;;;19.45;94.99
7668;BME280;3876;42.204;24.686;2023-06-04T01:26:33;99547.16;;;19.58;95.05
7668;BME280;3876;42.204;24.686;2023-06-04T01:29:01;99555.72;;;19.60;94.91
7668;BME280;3876;42.204;24.686;2023-06-04T01:31:29;99548.66;;;19.62;94.70
7668;BME280;3876;42.204;24.686;2023-06-04T01:33:58;99538.84;;;19.53;94.39
7668;BME280;3876;42.204;24.686;2023-06-04T01:36:27;99561.03;;;19.71;94.58
7668;BME280;3876;42.204;24.686;2023-06-04T01:38:55;99563.56;;;19.73;93.66
7668;BME280;3876;42.204;24.686;2023-06-04T01:41:21;99561.41;;;19.79;93.69
7668;BME280;3876;42.204;24.686;2023-06-04T01:43:48;99557.03;;;19.80;92.99
7668;BME280;3876;42.204;24.686;2023-06-04T01:46:15;99553.47;;;19.81;93.43
7668;BME280;3876;42.204;24.686;2023-06-04T01:48:43;99551.63;;;19.83;93.08
7668;BME280;3876;42.204;24.686;2023-06-04T01:51:10;99549.09;;;19.81;93.87
7668;BME280;3876;42.204;24.686;2023-06-04T01:53:37;99554.88;;;19.86;94.07
7668;BME280;3876;42.204;24.686;2023-06-04T01:56:03;99552.06;;;19.89;94.26
7668;BME280;3876;42.204;24.686;2023-06-04T01:58:30;99552.78;;;19.91;94.55
7668;BME280;3876;42.204;24.686;2023-06-04T02:00:59;99558.91;;;19.90;94.58
7668;BME280;3876;42.204;24.686;2023-06-04T02:03:28;99550.59;;;19.85;94.66
7668;BME280;3876;42.204;24.686;2023-06-04T02:06:04;99567.47;;;19.92;94.57
7668;BME280;3876;42.204;24.686;2023-06-04T02:08:32;99567.47;;;19.92;94.57
7668;BME280;3876;42.204;24.686;2023-06-04T02:10:59;99572.69;;;19.92;94.98
7668;BME280;3876;42.204;24.686;2023-06-04T02:13:26;99574.31;;;19.93;95.37
7668;BME280;3876;42.204;24.686;2023-06-04T02:15:53;99573.31;;;19.96;95.34
7668;BME280;3876;42.204;24.686;2023-06-04T02:18:20;99571.53;;;19.97;96.29
7668;BME280;3876;42.204;24.686;2023-06-04T02:20:48;99580.06;;;19.99;96.32
7668;BME280;3876;42.204;24.686;2023-06-04T02:23:18;99569.22;;;19.92;97.21
7668;BME280;3876;42.204;24.686;2023-06-04T02:25:45;99582.69;;;19.99;97.47
7668;BME280;3876;42.204;24.686;2023-06-04T02:28:13;99585.38;;;19.97;97.36
7668;BME280;3876;42.204;24.686;2023-06-04T02:30:40;99571.59;;;19.82;97.81
7668;BME280;3876;42.204;24.686;2023-06-04T02:33:07;99588.56;;;19.88;97.81
7668;BME280;3876;42.204;24.686;2023-06-04T02:35:35;99586.28;;;19.83;97.47
7668;BME280;3876;42.204;24.686;2023-06-04T02:38:02;99585.53;;;19.81;97.55
7668;BME280;3876;42.204;24.686;2023-06-04T02:40:30;99587.28;;;19.81;97.57
7668;BME280;3876;42.204;24.686;2023-06-04T02:42:57;99598.53;;;19.81;97.72
7668;BME280;3876;42.204;24.686;2023-06-04T02:45:24;99600.31;;;19.81;98.27
7668;BME280;3876;42.204;24.686;2023-06-04T02:47:51;99590.09;;;19.78;98.42
7668;BME280;3876;42.204;24.686;2023-06-04T02:50:18;99597.47;;;19.71;99.08
7668;BME280;3876;42.204;24.686;2023-06-04T02:52:45;99596.75;;;19.69;99.83
7668;BME280;3876;42.204;24.686;2023-06-04T02:55:12;99593.94;;;19.72;100.00
7668;BME280;3876;42.204;24.686;2023-06-04T02:57:41;99600.06;;;19.71;100.00
7668;BME280;3876;42.204;24.686;2023-06-04T03:00:09;99596.75;;;19.69;100.00
7668;BME280;3876;42.204;24.686;2023-06-04T03:02:41;99599.88;;;19.74;100.00
7668;BME280;3876;42.204;24.686;2023-06-04T03:05:09;99598.84;;;19.77;100.00
7668;BME280;3876;42.204;24.686;2023-06-04T03:07:38;99606.75;;;19.75;100.00
7668;BME280;3876;42.204;24.686;2023-06-04T03:10:07;99613.28;;;19.68;100.00
7668;BME280;3876;42.204;24.686;2023-06-04T03:12:34;99612.53;;;19.66;100.00
7668;BME280;3876;42.204;24.686;2023-06-04T03:15:02;99602.34;;;19.63;100.00
7668;BME280;3876;42.204;24.686;2023-06-04T03:17:30;99615.47;;;19.74;100.00
7668;BME280;3876;42.204;24.686;2023-06-04T03:19:57;99622.34;;;19.75;100.00
7668;BME280;3876;42.204;24.686;2023-06-04T03:22:24;99616.31;;;19.75;100.00
7668;BME280;3876;42.204;24.686;2023-06-04T03:24:51;99616.94;;;19.78;100.00
7668;BME280;3876;42.204;24.686;2023-06-04T03:27:18;99609.34;;;19.75;100.00
7668;BME280;3876;42.204;24.686;2023-06-04T03:29:45;99601.75;;;19.72;100.00
7668;BME280;3876;42.204;24.686;2023-06-04T03:32:14;99618.44;;;19.82;100.00
7668;BME280;3876;42.204;24.686;2023-06-04T03:34:42;99624.38;;;19.84;100.00
7668;BME280;3876;42.204;24.686;2023-06-04T03:37:09;99628.19;;;19.79;100.00
7668;BME280;3876;42.204;24.686;2023-06-04T03:39:36;99631.09;;;19.74;100.00
7668;BME280;3876;42.204;24.686;2023-06-04T03:42:03;99629.25;;;19.76;100.00
7668;BME280;3876;42.204;24.686;2023-06-04T03:44:30;99631.00;;;19.76;100.00
7668;BME280;3876;42.204;24.686;2023-06-04T03:46:56;99632.03;;;19.73;100.00
7668;BME280;3876;42.204;24.686;2023-06-04T03:49:25;99633.69;;;19.74;100.00
7668;BME280;3876;42.204;24.686;2023-06-04T03:51:51;99626.91;;;19.72;100.00
7668;BME280;3876;42.204;24.686;2023-06-04T03:54:18;99640.09;;;19.83;100.00
7668;BME280;3876;42.204;24.686;2023-06-04T03:56:47;99636.44;;;19.85;100.00
7668;BME280;3876;42.204;24.686;2023-06-04T03:59:14;99635.31;;;19.89;100.00
7668;BME280;3876;42.204;24.686;2023-06-04T04:01:41;99640.97;;;19.96;100.00
7668;BME280;3876;42.204;24.686;2023-06-04T04:04:08;99639.94;;;19.99;100.00
7668;BME280;3876;42.204;24.686;2023-06-04T04:06:36;99641.41;;;20.03;100.00
7668;BME280;3876;42.204;24.686;2023-06-04T04:09:03;99658.09;;;20.13;100.00
7668;BME280;3876;42.204;24.686;2023-06-04T04:11:31;99661.13;;;20.19;100.00
7668;BME280;3876;42.204;24.686;2023-06-04T04:13:58;99667.91;;;20.22;100.00
7668;BME280;3876;42.204;24.686;2023-06-04T04:16:26;99673.56;;;20.28;100.00
7668;BME280;3876;42.204;24.686;2023-06-04T04:18:53;99674.56;;;20.26;100.00
7668;BME280;3876;42.204;24.686;2023-06-04T04:21:19;99673.47;;;20.30;100.00
7668;BME280;3876;42.204;24.686;2023-06-04T04:23:49;99675.03;;;20.32;100.00
7668;BME280;3876;42.204;24.686;2023-06-04T04:26:15;99664.09;;;20.27;100.00
7668;BME280;3876;42.204;24.686;2023-06-04T04:28:42;99667.91;;;20.22;100.00
7668;BME280;3876;42.204;24.686;2023-06-04T04:31:10;99670.38;;;20.23;100.00
7668;BME280;3876;42.204;24.686;2023-06-04T04:33:37;99667.69;;;20.25;100.00
7668;BME280;3876;42.204;24.686;2023-06-04T04:36:05;99680.56;;;20.28;100.00
7668;BME280;3876;42.204;24.686;2023-06-04T04:38:34;99681.91;;;20.33;100.00
7668;BME280;3876;42.204;24.686;2023-06-04T04:41:02;99677.53;;;20.34;100.00
7668;BME280;3876;42.204;24.686;2023-06-04T04:43:30;99675.56;;;20.37;100.00
7668;BME280;3876;42.204;24.686;2023-06-04T04:45:57;99687.34;;;20.43;100.00
7668;BME280;3876;42.204;24.686;2023-06-04T04:48:24;99684.53;;;20.46;100.00
7668;BME280;3876;42.204;24.686;2023-06-04T04:50:51;99688.63;;;20.50;100.00
7668;BME280;3876;42.204;24.686;2023-06-04T04:53:18;99688.41;;;20.53;100.00
7668;BME280;3876;42.204;24.686;2023-06-04T04:55:45;99673.19;;;20.47;100.00
7668;BME280;3876;42.204;24.686;2023-06-04T04:58:13;99674.31;;;20.43;100.00
7668;BME280;3876;42.204;24.686;2023-06-04T05:00:40;99693.81;;;20.50;100.00
7668;BME280;3876;42.204;24.686;2023-06-04T05:03:07;99692.97;;;20.50;100.00
7668;BME280;3876;42.204;24.686;2023-06-04T05:05:34;99692.97;;;20.50;100.00
7668;BME280;3876;42.204;24.686;2023-06-04T05:08:00;99695.50;;;20.51;100.00
7668;BME280;3876;42.204;24.686;2023-06-04T05:10:27;99701.22;;;20.56;100.00
7668;BME280;3876;42.204;24.686;2023-06-04T05:12:55;99703.63;;;20.59;100.00
7668;BME280;3876;42.204;24.686;2023-06-04T05:15:23;99705.50;;;20.57;100.00
7668;BME280;3876;42.204;24.686;2023-06-04T05:17:51;99703.41;;;20.50;100.00
7668;BME280;3876;42.204;24.686;2023-06-04T05:20:18;99703.81;;;20.43;100.00
7668;BME280;3876;42.204;24.686;2023-06-04T05:22:46;99706.91;;;20.36;100.00
7668;BME280;3876;42.204;24.686;2023-06-04T05:25:13;99703.78;;;20.31;100.00
7668;BME280;3876;42.204;24.686;2023-06-04T05:27:40;99713.78;;;20.37;100.00
7668;BME280;3876;42.204;24.686;2023-06-04T05:30:08;99715.91;;;20.45;100.00
7668;BME280;3876;42.204;24.686;2023-06-04T05:32:37;99716.75;;;20.45;100.00
7668;BME280;3876;42.204;24.686;2023-06-04T05:35:06;99725.06;;;20.50;100.00
7668;BME280;3876;42.204;24.686;2023-06-04T05:37:33;99720.91;;;20.48;100.00
7668;BME280;3876;42.204;24.686;2023-06-04T05:40:00;99725.28;;;20.47;100.00
7668;BME280;3876;42.204;24.686;2023-06-04T05:42:30;99723.50;;;20.48;100.00
7668;BME280;3876;42.204;24.686;2023-06-04T05:44:57;99731.31;;;20.48;100.00
7668;BME280;3876;42.204;24.686;2023-06-04T05:47:24;99731.22;;;20.49;100.00
7668;BME280;3876;42.204;24.686;2023-06-04T05:49:52;99736.78;;;20.57;100.00
7668;BME280;3876;42.204;24.686;2023-06-04T05:52:18;99741.97;;;20.57;100.00
7668;BME280;3876;42.204;24.686;2023-06-04T05:54:45;99739.56;;;20.54;100.00
7668;BME280;3876;42.204;24.686;2023-06-04T05:57:12;99743.41;;;20.49;100.00
7668;BME280;3876;42.204;24.686;2023-06-04T05:59:39;99719.00;;;20.37;100.00
7668;BME280;3876;42.204;24.686;2023-06-04T06:02:05;99745.91;;;20.50;100.00
7668;BME280;3876;42.204;24.686;2023-06-04T06:04:32;99747.59;;;20.51;100.00
7668;BME280;3876;42.204;24.686;2023-06-04T06:07:01;99751.53;;;20.44;100.00
7668;BME280;3876;42.204;24.686;2023-06-04T06:09:28;99747.88;;;20.47;100.00
7668;BME280;3876;42.204;24.686;2023-06-04T06:11:55;99769.63;;;20.46;100.00
7668;BME280;3876;42.204;24.686;2023-06-04T06:14:21;99761.34;;;20.53;100.00
7668;BME280;3876;42.204;24.686;2023-06-04T06:16:48;99760.72;;;20.62;100.00
7668;BME280;3876;42.204;24.686;2023-06-04T06:19:16;99759.53;;;20.68;100.00
7668;BME280;3876;42.204;24.686;2023-06-04T06:21:43;99766.28;;;20.70;100.00
7668;BME280;3876;42.204;24.686;2023-06-04T06:24:11;99768.91;;;20.83;100.00
7668;BME280;3876;42.204;24.686;2023-06-04T06:26:38;99769.78;;;20.96;100.00
7668;BME280;3876;42.204;24.686;2023-06-04T06:29:05;99772.47;;;21.07;100.00
7668;BME280;3876;42.204;24.686;2023-06-04T06:31:32;99770.63;;;20.97;99.86
7668;BME280;3876;42.204;24.686;2023-06-04T06:33:59;99776.75;;;20.95;100.00
7668;BME280;3876;42.204;24.686;2023-06-04T06:36:25;99777.47;;;20.98;100.00
7668;BME280;3876;42.204;24.686;2023-06-04T06:38:54;99777.28;;;21.01;100.00
7668;BME280;3876;42.204;24.686;2023-06-04T06:41:22;99778.75;;;21.05;99.38
7668;BME280;3876;42.204;24.686;2023-06-04T06:43:49;99772.94;;;21.14;99.80
7668;BME280;3876;42.204;24.686;2023-06-04T06:46:16;99775.28;;;21.04;98.00
7668;BME280;3876;42.204;24.686;2023-06-04T06:48:43;99783.91;;;21.19;98.79
7668;BME280;3876;42.204;24.686;2023-06-04T06:51:10;99782.72;;;21.23;100.00
7668;BME280;3876;42.204;24.686;2023-06-04T06:53:37;99790.88;;;21.31;99.37
7668;BME280;3876;42.204;24.686;2023-06-04T06:56:05;99787.03;;;21.36;99.29
7668;BME280;3876;42.204;24.686;2023-06-04T06:58:33;99780.66;;;21.28;99.55
7668;BME280;3876;42.204;24.686;2023-06-04T07:01:00;99777.53;;;21.23;97.66
7668;BME280;3876;42.204;24.686;2023-06-04T07:03:28;99778.47;;;21.22;97.32
7668;BME280;3876;42.204;24.686;2023-06-04T07:05:55;99784.84;;;21.30;97.51
7668;BME280;3876;42.204;24.686;2023-06-04T07:08:21;99784.41;;;21.36;97.43
7668;BME280;3876;42.204;24.686;2023-06-04T07:10:48;99791.94;;;21.41;97.37
7668;BME280;3876;42.204;24.686;2023-06-04T07:13:15;99786.59;;;21.42;96.69
7668;BME280;3876;42.204;24.686;2023-06-04T07:15:43;99791.94;;;21.41;97.04
7668;BME280;3876;42.204;24.686;2023-06-04T07:18:10;99794.22;;;21.45;97.60
7668;BME280;3876;42.204;24.686;2023-06-04T07:20:37;99805.28;;;21.49;96.41
7668;BME280;3876;42.204;24.686;2023-06-04T07:23:04;99796.22;;;21.42;96.98
7668;BME280;3876;42.204;24.686;2023-06-04T07:25:32;99799.97;;;21.38;97.96
7668;BME280;3876;42.204;24.686;2023-06-04T07:28:01;99802.56;;;21.51;99.39
7668;BME280;3876;42.204;24.686;2023-06-04T07:30:30;99799.34;;;21.47;97.77
7668;BME280;3876;42.204;24.686;2023-06-04T07:32:58;99808.63;;;21.51;98.52
7668;BME280;3876;42.204;24.686;2023-06-04T07:35:25;99817.38;;;21.50;98.74
7668;BME280;3876;42.204;24.686;2023-06-04T07:37:52;99814.47;;;21.42;99.54
7668;BME280;3876;42.204;24.686;2023-06-04T07:40:19;99800.91;;;21.37;99.01
7668;BME280;3876;42.204;24.686;2023-06-04T07:42:46;99821.34;;;21.43;100.00
7668;BME280;3876;42.204;24.686;2023-06-04T07:45:13;99813.31;;;21.46;99.65
7668;BME280;3876;42.204;24.686;2023-06-04T07:47:40;99820.28;;;21.45;99.93
7668;BME280;3876;42.204;24.686;2023-06-04T07:50:09;99819.28;;;21.48;99.22
7668;BME280;3876;42.204;24.686;2023-06-04T07:52:36;99829.50;;;21.51;100.00
7668;BME280;3876;42.204;24.686;2023-06-04T07:55:03;99812.38;;;21.47;100.00
7668;BME280;3876;42.204;24.686;2023-06-04T07:57:30;99821.47;;;21.54;100.00
7668;BME280;3876;42.204;24.686;2023-06-04T07:59:57;99817.38;;;21.50;100.00
7668;BME280;3876;42.204;24.686;2023-06-04T08:02:24;99818.09;;;21.52;100.00
7668;BME280;3876;42.204;24.686;2023-06-04T08:04:51;99817.91;;;21.55;99.97
7668;BME280;3876;42.204;24.686;2023-06-04T08:07:19;99826.34;;;21.46;100.00
7668;BME280;3876;42.204;24.686;2023-06-04T08:09:46;99833.66;;;21.41;100.00
7668;BME280;3876;42.204;24.686;2023-06-04T08:12:13;99824.38;;;21.50;100.00
7668;BME280;3876;42.204;24.686;2023-06-04T08:14:41;99831.28;;;21.38;100.00
7668;BME280;3876;42.204;24.686;2023-06-04T08:17:08;99829.28;;;21.29;100.00
7668;BME280;3876;42.204;24.686;2023-06-04T08:19:35;99830.00;;;21.31;97.92
7668;BME280;3876;42.204;24.686;2023-06-04T08:22:02;99827.72;;;21.39;99.21
7668;BME280;3876;42.204;24.686;2023-06-04T08:24:30;99836.28;;;21.41;97.85
7668;BME280;3876;42.204;24.686;2023-06-04T08:26:57;99830.94;;;21.42;97.96
7668;BME280;3876;42.204;24.686;2023-06-04T08:29:24;99803.41;;;21.26;93.89
7668;BME280;3876;42.204;24.686;2023-06-04T08:31:51;99828.03;;;21.34;93.88
7668;BME280;3876;42.204;24.686;2023-06-04T08:34:18;99826.34;;;21.59;95.51
7668;BME280;3876;42.204;24.686;2023-06-04T08:36:45;99828.44;;;21.66;95.67
7668;BME280;3876;42.204;24.686;2023-06-04T08:39:12;99832.53;;;21.70;95.02
7668;BME280;3876;42.204;24.686;2023-06-04T08:41:43;99839.72;;;21.79;95.03
7668;BME280;3876;42.204;24.686;2023-06-04T08:44:10;99839.50;;;21.82;96.49
7668;BME280;3876;42.204;24.686;2023-06-04T08:46:38;99836.38;;;21.77;93.35
7668;BME280;3876;42.204;24.686;2023-06-04T08:49:06;99835.31;;;21.80;93.45
7668;BME280;3876;42.204;24.686;2023-06-04T08:51:35;99845.22;;;21.87;92.85
7668;BME280;3876;42.204;24.686;2023-06-04T08:54:03;99843.25;;;21.78;93.67
7668;BME280;3876;42.204;24.686;2023-06-04T08:56:31;99848.66;;;21.88;92.46
7668;BME280;3876;42.204;24.686;2023-06-04T08:59:02;99839.28;;;21.85;92.99
7668;BME280;3876;42.204;24.686;2023-06-04T09:01:29;99850.78;;;21.95;92.65
7668;BME280;3876;42.204;24.686;2023-06-04T09:03:58;99848.47;;;22.04;92.06
7668;BME280;3876;42.204;24.686;2023-06-04T09:06:25;99825.72;;;22.06;89.66
7668;BME280;3876;42.204;24.686;2023-06-04T09:08:54;99828.41;;;22.04;90.63
7668;BME280;3876;42.204;24.686;2023-06-04T09:11:23;99848.06;;;22.10;93.87
7668;BME280;3876;42.204;24.686;2023-06-04T09:13:53;99852.09;;;22.14;94.21
7668;BME280;3876;42.204;24.686;2023-06-04T09:16:24;99852.19;;;22.25;89.54
7668;BME280;3876;42.204;24.686;2023-06-04T09:18:51;99852.19;;;22.25;90.89
7668;BME280;3876;42.204;24.686;2023-06-04T09:21:19;99849.44;;;22.39;92.78
7668;BME280;3876;42.204;24.686;2023-06-04T09:23:47;99843.09;;;22.54;92.42
7668;BME280;3876;42.204;24.686;2023-06-04T09:26:14;99856.00;;;22.68;88.65
7668;BME280;3876;42.204;24.686;2023-06-04T09:28:41;99860.81;;;22.74;88.61
7668;BME280;3876;42.204;24.686;2023-06-04T09:31:09;99851.06;;;22.76;88.87
7668;BME280;3876;42.204;24.686;2023-06-04T09:33:44;99854.91;;;22.83;89.96
7668;BME280;3876;42.204;24.686;2023-06-04T09:36:11;99854.91;;;22.83;90.79
7668;BME280;3876;42.204;24.686;2023-06-04T09:38:38;99851.38;;;22.95;90.73
7668;BME280;3876;42.204;24.686;2023-06-04T09:41:11;99855.44;;;22.99;86.00
7668;BME280;3876;42.204;24.686;2023-06-04T09:43:38;99847.09;;;22.94;87.54
7668;BME280;3876;42.204;24.686;2023-06-04T09:46:11;99855.94;;;23.05;87.36
7668;BME280;3876;42.204;24.686;2023-06-04T09:48:39;99852.38;;;23.06;84.45
7668;BME280;3876;42.204;24.686;2023-06-04T09:51:08;99847.03;;;23.07;85.29
7668;BME280;3876;42.204;24.686;2023-06-04T09:53:36;99851.88;;;23.00;83.82
7668;BME280;3876;42.204;24.686;2023-06-04T09:56:04;99854.06;;;23.07;86.91
7668;BME280;3876;42.204;24.686;2023-06-04T09:58:32;99834.47;;;22.88;86.71
7668;BME280;3876;42.204;24.686;2023-06-04T10:01:00;99856.84;;;22.92;85.13
7668;BME280;3876;42.204;24.686;2023-06-04T10:03:30;99863.56;;;23.08;86.23
7668;BME280;3876;42.204;24.686;2023-06-04T10:05:58;99854.94;;;23.29;82.53
7668;BME280;3876;42.204;24.686;2023-06-04T10:08:29;99852.47;;;23.39;79.75
7668;BME280;3876;42.204;24.686;2023-06-04T10:10:58;99850.84;;;23.49;77.62
7668;BME280;3876;42.204;24.686;2023-06-04T10:13:27;99855.84;;;23.63;78.60
7668;BME280;3876;42.204;24.686;2023-06-04T10:15:57;99847.78;;;23.77;74.65
7668;BME280;3876;42.204;24.686;2023-06-04T10:18:27;99853.72;;;23.79;75.02
7668;BME280;3876;42.204;24.686;2023-06-04T10:20:55;99846.13;;;23.87;76.75
7668;BME280;3876;42.204;24.686;2023-06-04T10:23:22;99857.53;;;23.86;75.08
7668;BME280;3876;42.204;24.686;2023-06-04T10:25:51;99846.09;;;23.98;76.41
7668;BME280;3876;42.204;24.686;2023-06-04T10:28:19;99847.53;;;24.25;72.35
7668;BME280;3876;42.204;24.686;2023-06-04T10:30:46;99839.50;;;24.48;73.57
7668;BME280;3876;42.204;24.686;2023-06-04T10:33:16;99842.09;;;24.91;69.45
7668;BME280;3876;42.204;24.686;2023-06-04T10:35:45;99846.28;;;25.15;67.39
7668;BME280;3876;42.204;24.686;2023-06-04T10:38:13;99834.84;;;25.16;68.35
7668;BME280;3876;42.204;24.686;2023-06-04T10:40:42;99840.47;;;25.32;68.99
7668;BME280;3876;42.204;24.686;2023-06-04T10:43:16;99843.00;;;25.43;66.04
7668;BME280;3876;42.204;24.686;2023-06-04T10:45:43;99841.47;;;25.40;64.17
7668;BME280;3876;42.204;24.686;2023-06-04T10:48:12;99840.34;;;25.13;63.66
7668;BME280;3876;42.204;24.686;2023-06-04T10:50:48;99836.19;;;25.10;64.20
7668;BME280;3876;42.204;24.686;2023-06-04T10:53:16;99831.31;;;25.26;67.12
7668;BME280;3876;42.204;24.686;2023-06-04T10:55:44;99831.44;;;25.25;69.12
7668;BME280;3876;42.204;24.686;2023-06-04T10:58:11;99822.94;;;25.32;71.88
7668;BME280;3876;42.204;24.686;2023-06-04T11:00:41;99818.81;;;25.60;68.57
7668;BME280;3876;42.204;24.686;2023-06-04T11:03:10;99826.66;;;25.81;66.65
7668;BME280;3876;42.204;24.686;2023-06-04T11:05:38;99823.31;;;25.79;66.15
7668;BME280;3876;42.204;24.686;2023-06-04T11:08:06;99824.88;;;25.81;68.45
7668;BME280;3876;42.204;24.686;2023-06-04T11:10:35;99814.88;;;26.15;70.44
7668;BME280;3876;42.204;24.686;2023-06-04T11:13:03;99820.88;;;25.87;73.46
7668;BME280;3876;42.204;24.686;2023-06-04T11:15:42;99812.56;;;25.31;78.29
7668;BME280;3876;42.204;24.686;2023-06-04T11:18:13;99812.13;;;25.05;79.08
7668;BME280;3876;42.204;24.686;2023-06-04T11:20:40;99820.88;;;24.94;80.81
7668;BME280;3876;42.204;24.686;2023-06-04T11:23:08;99820.69;;;24.86;79.24
7668;BME280;3876;42.204;24.686;2023-06-04T11:25:35;99825.69;;;24.78;81.82
7668;BME280;3876;42.204;24.686;2023-06-04T11:28:02;99823.56;;;24.72;80.59
7668;BME280;3876;42.204;24.686;2023-06-04T11:30:28;99815.28;;;24.56;82.45
7668;BME280;3876;42.204;24.686;2023-06-04T11:33:04;99824.03;;;24.77;83.56
7668;BME280;3876;42.204;24.686;2023-06-04T11:35:39;99815.63;;;24.94;80.76
7668;BME280;3876;42.204;24.686;2023-06-04T11:38:06;99819.09;;;25.16;82.74
7668;BME280;3876;42.204;24.686;2023-06-04T11:40:33;99819.53;;;25.41;79.32
7668;BME280;3876;42.204;24.686;2023-06-04T11:43:01;99827.72;;;25.48;78.57
7668;BME280;3876;42.204;24.686;2023-06-04T11:45:29;99816.72;;;25.54;77.31
7668;BME280;3876;42.204;24.686;2023-06-04T11:47:56;99821.06;;;25.65;77.23
7668;BME280;3876;42.204;24.686;2023-06-04T11:50:27;99823.06;;;25.31;74.39
7668;BME280;3876;42.204;24.686;2023-06-04T11:52:54;99817.22;;;25.27;74.56
7668;BME280;3876;42.204;24.686;2023-06-04T11:55:21;99826.44;;;25.42;73.96
7668;BME280;3876;42.204;24.686;2023-06-04T11:57:49;99816.03;;;25.52;75.64
7668;BME280;3876;42.204;24.686;2023-06-04T12:00:16;99816.22;;;25.19;78.11
7668;BME280;3876;42.204;24.686;2023-06-04T12:02:52;99815.78;;;25.14;79.08
7668;BME280;3876;42.204;24.686;2023-06-04T12:05:20;99825.25;;;25.26;78.89
7668;BME280;3876;42.204;24.686;2023-06-04T12:07:50;99814.81;;;25.35;77.03
7668;BME280;3876;42.204;24.686;2023-06-04T12:10:17;99812.91;;;25.47;77.61
7668;BME280;3876;42.204;24.686;2023-06-04T12:12:45;99821.91;;;25.65;74.63
7668;BME280;3876;42.204;24.686;2023-06-04T12:15:12;99825.59;;;25.63;74.58
7668;BME280;3876;42.204;24.686;2023-06-04T12:17:51;99819.66;;;25.61;78.49
7668;BME280;3876;42.204;24.686;2023-06-04T12:20:18;99813.91;;;25.76;74.53
7668;BME280;3876;42.204;24.686;2023-06-04T12:22:45;99805.47;;;25.73;73.89
7668;BME280;3876;42.204;24.686;2023-06-04T12:25:23;99824.16;;;25.79;72.15
7668;BME280;3876;42.204;24.686;2023-06-04T12:27:50;99827.50;;;25.81;72.71
7668;BME280;3876;42.204;24.686;2023-06-04T12:30:17;99818.19;;;25.68;71.50
7668;BME280;3876;42.204;24.686;2023-06-04T12:32:44;99837.16;;;25.81;72.69
7668;BME280;3876;42.204;24.686;2023-06-04T12:35:11;99820.56;;;25.80;70.59
7668;BME280;3876;42.204;24.686;2023-06-04T12:37:38;99832.97;;;25.48;71.02
7668;BME280;3876;42.204;24.686;2023-06-04T12:40:05;99826.44;;;25.42;73.36
7668;BME280;3876;42.204;24.686;2023-06-04T12:42:34;99828.25;;;25.42;73.46
7668;BME280;3876;42.204;24.686;2023-06-04T12:45:01;99826.41;;;25.33;71.81
7668;BME280;3876;42.204;24.686;2023-06-04T12:47:27;99830.22;;;25.29;73.77
7668;BME280;3876;42.204;24.686;2023-06-04T12:49:54;99822.56;;;25.16;70.69
7668;BME280;3876;42.204;24.686;2023-06-04T12:52:21;99828.88;;;25.34;72.79
7668;BME280;3876;42.204;24.686;2023-06-04T12:54:48;99812.75;;;25.39;72.12
7668;BME280;3876;42.204;24.686;2023-06-04T12:57:15;99827.78;;;25.37;71.80
7668;BME280;3876;42.204;24.686;2023-06-04T12:59:43;99812.56;;;25.31;70.71
7668;BME280;3876;42.204;24.686;2023-06-04T13:02:10;99831.66;;;25.33;67.91
7668;BME280;3876;42.204;24.686;2023-06-04T13:04:36;99829.44;;;25.38;67.82
7668;BME280;3876;42.204;24.686;2023-06-04T13:07:03;99825.56;;;25.53;65.39
7668;BME280;3876;42.204;24.686;2023-06-04T13:09:30;99823.75;;;25.53;67.73
7668;BME280;3876;42.204;24.686;2023-06-04T13:11:58;99822.94;;;25.53;66.20